Terminal Aerodrome Forecast
Issued by NWS

Home | Current Version | Previous Version | Text Only | Print | Product List | Glossary On
Versions: 1 2 3 4 5 6 7 8 9 10 11 12 13 14 15 16 17 18 19
000
FTUS45 KFGZ 282300
TAFPGA
TAF
KPGA 282330Z 0100/0124 35007KT P6SM VCSH SCT015 BKN080
     FM010600 VRB05KT 3SM BR VCSH SCT005 OVC030
     FM011400 VRB06KT P6SM SCT005 BKN015
     FM011800 VRB06KT 5SM -SHRA SCT015 BKN060=

USA.gov is the U.S. government's official web portal to all federal, state and local government web resources and services.